Time;durP1;ratioP1;P1;durP2;ratioP2;P2;SDS_P1;SDS_P2;PMS_P1;PMS_P2;Temp;Humidity;BMP_temperature;BMP_pressure;BME280_temperature;BME280_humidity;BME280_pressure;Samples;Min_cycle;Max_cycle;Signal;HPM_P1;HPM_P2
2022/07/10 00:00:50;;;;;;;9.10;7.97;;;;;;;;;;5054404;28;20041;-74
2022/07/10 00:03:17;;;;;;;10.50;8.73;;;;;;;;;;5054409;28;20048;-73
2022/07/10 00:05:45;;;;;;;9.48;8.32;;;;;;;;;;5054294;28;20119;-74
2022/07/10 00:08:12;;;;;;;9.80;8.80;;;;;;;;;;5054174;28;20068;-74
2022/07/10 00:10:40;;;;;;;9.95;8.90;;;;;;;;;;5054329;28;20045;-73
2022/07/10 00:13:08;;;;;;;10.90;8.95;;;;;;;;;;5054237;28;20033;-74
2022/07/10 00:15:36;;;;;;;9.98;8.40;;;;;;;;;;5054138;28;20045;-74
2022/07/10 00:18:03;;;;;;;8.77;7.88;;;;;;;;;;5053987;28;20123;-74
2022/07/10 00:20:32;;;;;;;9.10;8.10;;;;;;;;;;5054137;28;20095;-73
2022/07/10 00:22:59;;;;;;;10.45;8.02;;;;;;;;;;5054172;28;20045;-73
2022/07/10 00:25:28;;;;;;;9.48;8.20;;;;;;;;;;5053982;28;20458;-73
2022/07/10 00:27:56;;;;;;;8.68;7.88;;;;;;;;;;5053616;28;20049;-73
2022/07/10 00:30:23;;;;;;;8.55;7.65;;;;;;;;;;5052572;28;20116;-73
2022/07/10 00:32:51;;;;;;;9.40;8.32;;;;;;;;;;5053567;28;20453;-73
2022/07/10 00:35:18;;;;;;;9.75;8.63;;;;;;;;;;5052628;28;20075;-73
2022/07/10 00:37:46;;;;;;;9.18;8.35;;;;;;;;;;5053324;28;20441;-73
2022/07/10 00:40:13;;;;;;;9.60;8.57;;;;;;;;;;5053667;28;20049;-73
2022/07/10 00:42:40;;;;;;;10.00;8.70;;;;;;;;;;5053144;28;20051;-72
2022/07/10 00:45:08;;;;;;;9.75;8.82;;;;;;;;;;5053312;28;20064;-73
2022/07/10 00:47:36;;;;;;;10.13;9.13;;;;;;;;;;5053362;28;20048;-73
2022/07/10 00:50:04;;;;;;;11.40;9.25;;;;;;;;;;5053242;28;20048;-72
2022/07/10 00:52:33;;;;;;;13.57;9.63;;;;;;;;;;5053419;28;20044;-72
2022/07/10 00:55:00;;;;;;;10.82;9.70;;;;;;;;;;5053418;28;20086;-72
2022/07/10 00:57:28;;;;;;;11.02;9.93;;;;;;;;;;5053192;28;20049;-73
2022/07/10 00:59:55;;;;;;;11.43;10.30;;;;;;;;;;5053189;28;20104;-73
2022/07/10 01:02:23;;;;;;;10.98;9.82;;;;;;;;;;5053086;28;20037;-72
2022/07/10 01:04:51;;;;;;;11.30;10.10;;;;;;;;;;5053110;28;20079;-73
2022/07/10 01:07:19;;;;;;;11.18;10.00;;;;;;;;;;5053283;28;20037;-72
2022/07/10 01:09:46;;;;;;;10.55;9.45;;;;;;;;;;5053182;28;20120;-73
2022/07/10 01:12:15;;;;;;;10.55;9.55;;;;;;;;;;5053334;28;20415;-73
2022/07/10 01:14:42;;;;;;;11.38;10.30;;;;;;;;;;5052861;28;20045;-73
2022/07/10 01:17:10;;;;;;;11.30;9.88;;;;;;;;;;5051662;28;20048;-73
2022/07/10 01:19:38;;;;;;;11.32;10.13;;;;;;;;;;5053078;28;20041;-73
2022/07/10 01:22:05;;;;;;;10.95;9.95;;;;;;;;;;5052879;28;20518;-73
2022/07/10 01:24:33;;;;;;;12.77;10.20;;;;;;;;;;5053172;28;20136;-73
2022/07/10 01:27:00;;;;;;;12.32;11.07;;;;;;;;;;5052728;28;20036;-73
2022/07/10 01:29:29;;;;;;;11.85;10.65;;;;;;;;;;5052775;28;20056;-73
2022/07/10 01:31:59;;;;;;;12.60;11.40;;;;;;;;;;5052601;28;20037;-72
2022/07/10 01:34:27;;;;;;;12.70;11.50;;;;;;;;;;5052639;28;20462;-72
2022/07/10 01:36:55;;;;;;;13.13;11.82;;;;;;;;;;5052777;28;20041;-73
2022/07/10 01:39:22;;;;;;;12.55;11.30;;;;;;;;;;5052843;28;20119;-73
2022/07/10 01:41:50;;;;;;;17.05;11.85;;;;;;;;;;5052562;28;20095;-73
2022/07/10 01:44:17;;;;;;;13.93;12.50;;;;;;;;;;5052447;28;20072;-72
2022/07/10 01:46:46;;;;;;;12.85;11.48;;;;;;;;;;5052227;28;20045;-73
2022/07/10 01:49:13;;;;;;;13.43;12.02;;;;;;;;;;5052715;28;20390;-72
2022/07/10 01:51:42;;;;;;;13.60;12.23;;;;;;;;;;5052582;28;20491;-73
2022/07/10 01:54:09;;;;;;;13.45;12.00;;;;;;;;;;5052426;28;20515;-72
2022/07/10 01:56:38;;;;;;;12.90;11.63;;;;;;;;;;5050828;28;20049;-73
2022/07/10 01:59:05;;;;;;;14.25;12.85;;;;;;;;;;5052434;28;20037;-72
2022/07/10 02:01:33;;;;;;;13.70;12.32;;;;;;;;;;5052260;28;20048;-72
2022/07/10 02:06:47;;;;;;;14.98;13.38;;;;;;;;;;5052265;28;20036;-73
2022/07/10 02:09:15;;;;;;;15.43;12.50;;;;;;;;;;5052321;28;20041;-73
2022/07/10 02:11:42;;;;;;;14.25;12.77;;;;;;;;;;5052293;28;20072;-72
2022/07/10 02:14:10;;;;;;;14.68;13.10;;;;;;;;;;5052302;28;20041;-72
2022/07/10 02:16:38;;;;;;;13.68;12.27;;;;;;;;;;5051987;28;20147;-72
2022/07/10 02:19:06;;;;;;;15.82;12.93;;;;;;;;;;5052441;28;20056;-72
2022/07/10 02:21:33;;;;;;;13.98;12.68;;;;;;;;;;5052223;28;20056;-71
2022/07/10 02:24:00;;;;;;;13.93;12.52;;;;;;;;;;5052093;28;20041;-71
2022/07/10 02:26:28;;;;;;;14.05;12.55;;;;;;;;;;5052170;28;20033;-71
2022/07/10 02:28:55;;;;;;;13.95;12.65;;;;;;;;;;5051962;28;20090;-71
2022/07/10 02:31:23;;;;;;;16.40;14.38;;;;;;;;;;5052307;28;20045;-71
2022/07/10 02:33:51;;;;;;;14.57;13.07;;;;;;;;;;5052048;28;20045;-71
2022/07/10 02:36:18;;;;;;;16.10;13.32;;;;;;;;;;5051904;28;20040;-71
2022/07/10 02:38:45;;;;;;;15.70;13.57;;;;;;;;;;5051935;28;20507;-71
2022/07/10 02:41:13;;;;;;;15.15;13.60;;;;;;;;;;5052306;28;20491;-71
2022/07/10 02:43:40;;;;;;;16.65;14.82;;;;;;;;;;5051777;28;20059;-70
2022/07/10 02:46:08;;;;;;;15.80;14.20;;;;;;;;;;5051787;28;20091;-71
2022/07/10 02:48:36;;;;;;;15.52;13.93;;;;;;;;;;5051835;28;20045;-71
2022/07/10 02:51:04;;;;;;;16.45;14.52;;;;;;;;;;5051607;28;20060;-71
2022/07/10 02:53:31;;;;;;;17.05;13.98;;;;;;;;;;5051781;28;20041;-71
2022/07/10 02:55:59;;;;;;;19.15;15.43;;;;;;;;;;5051750;28;20095;-71
2022/07/10 02:58:26;;;;;;;16.52;14.85;;;;;;;;;;5052879;28;20402;-71
2022/07/10 03:00:54;;;;;;;16.98;14.85;;;;;;;;;;5055638;28;20132;-71
2022/07/10 03:03:22;;;;;;;16.52;14.52;;;;;;;;;;5055436;28;20041;-71
2022/07/10 03:05:49;;;;;;;17.65;15.75;;;;;;;;;;5055363;28;20086;-71
2022/07/10 03:08:17;;;;;;;17.25;15.40;;;;;;;;;;5055271;28;20037;-71
2022/07/10 03:10:44;;;;;;;17.77;15.40;;;;;;;;;;5055286;28;20041;-71
2022/07/10 03:13:12;;;;;;;17.10;15.38;;;;;;;;;;5055244;28;20037;-70
2022/07/10 03:15:39;;;;;;;18.50;16.55;;;;;;;;;;5055051;28;20041;-70
2022/07/10 03:18:07;;;;;;;17.50;15.77;;;;;;;;;;5055074;28;20502;-71
2022/07/10 03:20:34;;;;;;;17.65;15.77;;;;;;;;;;5055092;28;20510;-70
2022/07/10 03:23:02;;;;;;;18.70;16.77;;;;;;;;;;5054993;28;20044;-70
2022/07/10 03:25:29;;;;;;;17.65;15.95;;;;;;;;;;5054897;28;20060;-70
2022/07/10 03:27:57;;;;;;;16.60;14.73;;;;;;;;;;5054936;28;20069;-70
2022/07/10 03:30:24;;;;;;;16.98;15.30;;;;;;;;;;5054878;28;20072;-70
2022/07/10 03:32:52;;;;;;;17.52;15.65;;;;;;;;;;5054775;28;20060;-70
2022/07/10 03:35:19;;;;;;;17.23;15.43;;;;;;;;;;5054778;28;20033;-70
2022/07/10 03:37:47;;;;;;;16.92;15.15;;;;;;;;;;5054635;28;20068;-70
2022/07/10 03:40:14;;;;;;;17.50;15.48;;;;;;;;;;5054755;28;20079;-71
2022/07/10 03:42:42;;;;;;;15.75;14.13;;;;;;;;;;5054324;28;20471;-70
2022/07/10 03:45:10;;;;;;;16.80;15.10;;;;;;;;;;5054415;28;20037;-70
2022/07/10 03:47:37;;;;;;;17.10;15.10;;;;;;;;;;5054605;28;20067;-70
2022/07/10 03:50:05;;;;;;;16.27;14.65;;;;;;;;;;5054459;28;20037;-70
2022/07/10 03:52:33;;;;;;;16.80;15.10;;;;;;;;;;5054502;28;20049;-72
2022/07/10 03:55:00;;;;;;;15.90;14.40;;;;;;;;;;5054418;28;20040;-72
2022/07/10 04:00:14;;;;;;;17.23;15.45;;;;;;;;;;5054297;28;20096;-73
2022/07/10 04:02:42;;;;;;;16.83;15.02;;;;;;;;;;5054254;28;20049;-72
2022/07/10 04:05:10;;;;;;;16.73;14.93;;;;;;;;;;5054247;28;20036;-72
2022/07/10 04:07:37;;;;;;;16.05;14.55;;;;;;;;;;5038393;28;20037;-72
2022/07/10 04:10:05;;;;;;;16.00;14.35;;;;;;;;;;5033953;28;20050;-72
2022/07/10 04:12:32;;;;;;;16.52;14.95;;;;;;;;;;5034426;28;20042;-72
2022/07/10 04:15:00;;;;;;;14.82;13.43;;;;;;;;;;5034211;28;20049;-72
2022/07/10 04:17:28;;;;;;;16.92;14.95;;;;;;;;;;5033756;28;20049;-71
2022/07/10 04:19:56;;;;;;;15.65;14.02;;;;;;;;;;5034347;28;20364;-73
2022/07/10 04:22:23;;;;;;;20.00;13.95;;;;;;;;;;5033956;28;20045;-72
2022/07/10 04:24:51;;;;;;;15.45;13.85;;;;;;;;;;5034073;28;20236;-72
2022/07/10 04:27:18;;;;;;;15.35;13.85;;;;;;;;;;5033980;28;20462;-72
2022/07/10 04:29:46;;;;;;;14.85;13.52;;;;;;;;;;5049100;28;20060;-72
2022/07/10 04:32:13;;;;;;;15.10;13.70;;;;;;;;;;5033902;28;20120;-72
2022/07/10 04:34:41;;;;;;;13.90;12.52;;;;;;;;;;5034040;28;20038;-72
2022/07/10 04:37:08;;;;;;;17.08;13.30;;;;;;;;;;5033564;28;20553;-72
2022/07/10 04:39:39;;;;;;;14.30;12.88;;;;;;;;;;5033792;28;20048;-72
2022/07/10 04:42:07;;;;;;;13.63;12.23;;;;;;;;;;5033566;28;20589;-68
2022/07/10 04:44:38;;;;;;;14.68;13.20;;;;;;;;;;5032843;28;20046;-72
2022/07/10 04:47:06;;;;;;;13.80;12.57;;;;;;;;;;5033358;28;20045;-72
2022/07/10 04:49:34;;;;;;;13.48;12.15;;;;;;;;;;5033488;28;20069;-72
2022/07/10 04:52:02;;;;;;;13.85;12.45;;;;;;;;;;5033392;28;20044;-72
2022/07/10 04:54:29;;;;;;;15.48;12.70;;;;;;;;;;5032801;28;20132;-71
2022/07/10 04:56:57;;;;;;;14.00;12.63;;;;;;;;;;5039630;28;20037;-71
2022/07/10 04:59:24;;;;;;;14.50;13.10;;;;;;;;;;5034190;28;20061;-71
2022/07/10 05:01:52;;;;;;;14.73;13.20;;;;;;;;;;5032679;28;20523;-71
2022/07/10 05:04:20;;;;;;;15.38;13.70;;;;;;;;;;5033567;28;20045;-72
2022/07/10 05:06:47;;;;;;;15.15;13.65;;;;;;;;;;5042405;28;20044;-72
2022/07/10 05:09:15;;;;;;;15.25;12.95;;;;;;;;;;5041300;28;20044;-72
2022/07/10 05:11:42;;;;;;;14.07;12.68;;;;;;;;;;5046640;28;20041;-71
2022/07/10 05:14:10;;;;;;;14.35;12.98;;;;;;;;;;5053110;28;20033;-72
2022/07/10 05:16:37;;;;;;;15.05;12.63;;;;;;;;;;5052609;28;20041;-71
2022/07/10 05:19:05;;;;;;;13.32;12.13;;;;;;;;;;5052867;28;20098;-73
2022/07/10 05:21:32;;;;;;;14.30;12.07;;;;;;;;;;5052227;28;20045;-73
2022/07/10 05:24:00;;;;;;;13.60;12.25;;;;;;;;;;5052817;28;20049;-73
2022/07/10 05:26:27;;;;;;;13.77;12.48;;;;;;;;;;5052879;28;20049;-72
2022/07/10 05:28:55;;;;;;;14.38;12.88;;;;;;;;;;5051607;28;20056;-72
2022/07/10 05:31:22;;;;;;;14.45;13.05;;;;;;;;;;5052892;28;20037;-74
2022/07/10 05:33:50;;;;;;;13.02;11.82;;;;;;;;;;5052574;28;20116;-73
2022/07/10 05:36:18;;;;;;;16.27;11.68;;;;;;;;;;5052633;28;20033;-79
2022/07/10 05:38:46;;;;;;;13.65;11.60;;;;;;;;;;5052837;28;20164;-79
2022/07/10 05:41:13;;;;;;;12.65;11.35;;;;;;;;;;5052527;28;20098;-74
2022/07/10 05:43:41;;;;;;;12.68;11.48;;;;;;;;;;5052095;28;20076;-75
2022/07/10 05:46:08;;;;;;;12.15;11.15;;;;;;;;;;5045360;28;20041;-74
2022/07/10 05:48:38;;;;;;;12.27;11.18;;;;;;;;;;5031848;28;20108;-74
2022/07/10 05:51:06;;;;;;;13.30;11.55;;;;;;;;;;5032392;28;20057;-71
2022/07/10 05:53:54;;;;;;;14.68;12.45;;;;;;;;;;5032263;28;20131;-69
2022/07/10 05:56:21;;;;;;;13.35;11.95;;;;;;;;;;5032252;28;20053;-68
2022/07/10 05:58:49;;;;;;;20.33;18.10;;;;;;;;;;5032453;28;20069;-67
2022/07/10 06:01:17;;;;;;;15.90;12.48;;;;;;;;;;5030333;28;20099;-68
2022/07/10 06:03:45;;;;;;;31.42;24.85;;;;;;;;;;5032445;28;20037;-68
2022/07/10 06:06:15;;;;;;;31.02;27.67;;;;;;;;;;5032378;28;20076;-68
2022/07/10 06:08:43;;;;;;;18.83;14.60;;;;;;;;;;5032375;28;20049;-68
2022/07/10 06:11:11;;;;;;;16.05;13.55;;;;;;;;;;5037932;28;20095;-68
2022/07/10 06:13:38;;;;;;;14.32;12.82;;;;;;;;;;5051903;28;20441;-68
2022/07/10 06:16:06;;;;;;;18.65;15.02;;;;;;;;;;5052085;28;20044;-68
2022/07/10 06:18:34;;;;;;;16.95;14.45;;;;;;;;;;5052080;28;20045;-68
2022/07/10 06:21:01;;;;;;;20.98;18.25;;;;;;;;;;5052088;28;20041;-68
2022/07/10 06:23:30;;;;;;;22.33;19.73;;;;;;;;;;5050944;28;20045;-68
2022/07/10 06:25:57;;;;;;;21.83;19.45;;;;;;;;;;5052078;28;20045;-67
2022/07/10 06:28:25;;;;;;;13.93;11.32;;;;;;;;;;5048959;28;20033;-67
2022/07/10 06:30:52;;;;;;;20.77;18.65;;;;;;;;;;5030763;28;20053;-67
2022/07/10 06:33:26;;;;;;;14.48;12.93;;;;;;;;;;5032052;28;20037;-67
2022/07/10 06:35:54;;;;;;;17.98;15.25;;;;;;;;;;5035943;28;20053;-67
2022/07/10 06:38:22;;;;;;;13.05;11.70;;;;;;;;;;5034699;28;20045;-68
2022/07/10 06:40:50;;;;;;;16.40;14.65;;;;;;;;;;5035651;28;20049;-68
2022/07/10 06:43:17;;;;;;;16.63;13.18;;;;;;;;;;5035558;28;20075;-68
2022/07/10 06:45:45;;;;;;;22.95;20.50;;;;;;;;;;5035644;28;20498;-68
2022/07/10 06:48:13;;;;;;;13.05;10.75;;;;;;;;;;5035682;28;20045;-68
2022/07/10 06:50:41;;;;;;;14.43;12.93;;;;;;;;;;5035803;28;20108;-68
2022/07/10 06:53:08;;;;;;;16.00;12.63;;;;;;;;;;5035932;28;20115;-68
2022/07/10 06:55:36;;;;;;;13.43;11.63;;;;;;;;;;5043018;28;20549;-68
2022/07/10 06:58:03;;;;;;;14.38;12.23;;;;;;;;;;5037819;28;20503;-67
2022/07/10 07:00:31;;;;;;;10.70;9.70;;;;;;;;;;5033862;28;20033;-67
2022/07/10 07:02:58;;;;;;;11.10;9.80;;;;;;;;;;5034229;28;20037;-68
2022/07/10 07:05:26;;;;;;;13.68;11.77;;;;;;;;;;5034103;28;20041;-68
2022/07/10 07:07:53;;;;;;;9.90;8.77;;;;;;;;;;5034214;28;20044;-67
2022/07/10 07:10:21;;;;;;;14.98;13.40;;;;;;;;;;5034188;28;20037;-68
2022/07/10 07:12:48;;;;;;;10.75;9.65;;;;;;;;;;5034354;28;20083;-67
2022/07/10 07:15:16;;;;;;;9.85;8.85;;;;;;;;;;5033953;28;20132;-68
2022/07/10 07:17:56;;;;;;;12.63;9.77;;;;;;;;;;5033677;28;20045;-67
2022/07/10 07:23:11;;;;;;;11.90;8.68;;;;;;;;;;5034622;28;20095;-67
2022/07/10 07:25:41;;;;;;;10.48;9.10;;;;;;;;;;5035124;28;20037;-67
2022/07/10 07:28:15;;;;;;;8.77;7.88;;;;;;;;;;5034926;28;20056;-66
2022/07/10 07:30:43;;;;;;;9.88;8.40;;;;;;;;;;5034557;28;20083;-66
2022/07/10 07:33:10;;;;;;;15.32;9.45;;;;;;;;;;5034930;28;20045;-67
2022/07/10 07:35:38;;;;;;;9.68;8.30;;;;;;;;;;5034737;28;20461;-69
2022/07/10 07:38:06;;;;;;;10.02;8.05;;;;;;;;;;5034015;28;20041;-70
2022/07/10 07:40:34;;;;;;;12.88;9.40;;;;;;;;;;5033842;28;20432;-69
2022/07/10 07:43:01;;;;;;;10.45;8.95;;;;;;;;;;5034560;28;20073;-69
2022/07/10 07:45:29;;;;;;;10.70;8.95;;;;;;;;;;5032821;28;20115;-69
2022/07/10 07:47:59;;;;;;;11.18;10.00;;;;;;;;;;5034439;28;20037;-71
2022/07/10 07:50:28;;;;;;;14.88;11.27;;;;;;;;;;5045734;28;20037;-68
2022/07/10 07:52:56;;;;;;;16.90;12.32;;;;;;;;;;5034799;28;20483;-69
2022/07/10 07:55:23;;;;;;;12.50;9.75;;;;;;;;;;5019891;28;20041;-69
2022/07/10 07:57:53;;;;;;;12.65;10.98;;;;;;;;;;5033560;28;20387;-69
2022/07/10 08:00:24;;;;;;;9.25;8.32;;;;;;;;;;5033657;28;20049;-68
2022/07/10 08:02:52;;;;;;;9.27;8.18;;;;;;;;;;5033914;28;20558;-69
2022/07/10 08:05:21;;;;;;;14.60;9.18;;;;;;;;;;5033671;28;20037;-69
2022/07/10 08:07:50;;;;;;;11.38;8.13;;;;;;;;;;5033889;28;20136;-69
2022/07/10 08:10:19;;;;;;;9.70;6.72;;;;;;;;;;5033821;28;20041;-69
2022/07/10 08:12:47;;;;;;;8.68;7.15;;;;;;;;;;5034193;28;20056;-69
2022/07/10 08:15:18;;;;;;;9.32;7.07;;;;;;;;;;5033498;28;20442;-69
2022/07/10 08:17:49;;;;;;;11.07;8.60;;;;;;;;;;5033792;28;20045;-69
2022/07/10 08:20:17;;;;;;;16.33;12.30;;;;;;;;;;5033572;28;20034;-69
2022/07/10 08:22:46;;;;;;;22.83;15.80;;;;;;;;;;5033739;28;20048;-69
2022/07/10 08:25:13;;;;;;;34.45;30.08;;;;;;;;;;5033408;28;20087;-67
2022/07/10 08:27:41;;;;;;;103.35;84.38;;;;;;;;;;5033867;28;20049;-68
2022/07/10 08:30:10;;;;;;;143.20;127.15;;;;;;;;;;5033427;28;20562;-68
2022/07/10 08:32:40;;;;;;;219.32;170.80;;;;;;;;;;5033361;28;20034;-69
2022/07/10 08:35:09;;;;;;;320.77;260.05;;;;;;;;;;5032217;28;20403;-68
2022/07/10 08:37:43;;;;;;;293.20;233.40;;;;;;;;;;5033249;28;20041;-69
2022/07/10 08:40:12;;;;;;;85.78;71.95;;;;;;;;;;5033403;28;20050;-67
2022/07/10 08:42:44;;;;;;;18.35;16.15;;;;;;;;;;5033215;28;20378;-69
2022/07/10 08:45:12;;;;;;;12.02;6.10;;;;;;;;;;5033195;28;20475;-69
2022/07/10 08:47:42;;;;;;;8.00;5.80;;;;;;;;;;5033187;28;20046;-69
2022/07/10 08:50:24;;;;;;;7.35;6.32;;;;;;;;;;5033215;28;20399;-68
2022/07/10 08:53:10;;;;;;;7.70;6.30;;;;;;;;;;5033030;28;20107;-69
2022/07/10 08:55:38;;;;;;;7.03;6.32;;;;;;;;;;5030919;28;20065;-68
2022/07/10 08:58:06;;;;;;;7.90;5.90;;;;;;;;;;5031473;28;20037;-68
2022/07/10 09:00:34;;;;;;;10.05;7.28;;;;;;;;;;5032797;28;20246;-69
2022/07/10 09:03:02;;;;;;;8.98;7.68;;;;;;;;;;5032746;28;20037;-67
2022/07/10 09:05:30;;;;;;;11.13;7.47;;;;;;;;;;5032784;28;20041;-68
2022/07/10 09:07:57;;;;;;;9.25;6.50;;;;;;;;;;5032291;28;20123;-68
2022/07/10 09:10:26;;;;;;;9.38;6.20;;;;;;;;;;5034792;28;20091;-68
2022/07/10 09:12:53;;;;;;;10.13;6.50;;;;;;;;;;5030507;28;20048;-67
2022/07/10 09:15:22;;;;;;;8.05;6.60;;;;;;;;;;5032464;28;20044;-67
2022/07/10 09:18:00;;;;;;;7.13;6.40;;;;;;;;;;5032653;28;20041;-67
2022/07/10 09:20:31;;;;;;;8.10;5.25;;;;;;;;;;5032492;28;20041;-67
2022/07/10 09:23:17;;;;;;;6.03;5.25;;;;;;;;;;5032249;28;20065;-67
2022/07/10 09:25:48;;;;;;;9.43;7.18;;;;;;;;;;5032408;28;20124;-67
2022/07/10 09:28:20;;;;;;;26.15;20.50;;;;;;;;;;5032317;28;20498;-67
2022/07/10 09:30:48;;;;;;;7.60;6.85;;;;;;;;;;5032275;28;20040;-68
2022/07/10 09:33:33;;;;;;;13.40;9.48;;;;;;;;;;5032299;28;20164;-68
2022/07/10 09:36:10;;;;;;;5.97;5.07;;;;;;;;;;5030514;28;20038;-68
2022/07/10 09:38:44;;;;;;;7.78;6.95;;;;;;;;;;5032498;28;20065;-68
2022/07/10 09:41:14;;;;;;;109.22;88.18;;;;;;;;;;5031150;28;20128;-68
2022/07/10 09:43:48;;;;;;;21.58;17.42;;;;;;;;;;5030911;28;20045;-68
2022/07/10 09:46:16;;;;;;;49.63;44.22;;;;;;;;;;5029173;28;20418;-68
2022/07/10 09:48:44;;;;;;;310.27;270.80;;;;;;;;;;5031389;28;20059;-68
2022/07/10 09:51:12;;;;;;;83.55;65.43;;;;;;;;;;5032138;28;20103;-68
2022/07/10 09:53:43;;;;;;;210.68;160.98;;;;;;;;;;5032263;28;20040;-69
2022/07/10 09:56:14;;;;;;;253.35;198.63;;;;;;;;;;5032503;28;20065;-68
2022/07/10 09:58:42;;;;;;;291.30;228.50;;;;;;;;;;5032645;28;20088;-69
2022/07/10 10:01:10;;;;;;;127.10;101.75;;;;;;;;;;5032444;28;20042;-69
2022/07/10 10:03:41;;;;;;;398.20;345.63;;;;;;;;;;5032479;28;20038;-69
2022/07/10 10:06:12;;;;;;;211.02;177.18;;;;;;;;;;5032450;28;20038;-69
2022/07/10 10:08:58;;;;;;;155.43;130.35;;;;;;;;;;5035776;28;20538;-69
2022/07/10 10:11:27;;;;;;;76.07;64.32;;;;;;;;;;5035113;28;20045;-69
2022/07/10 10:13:55;;;;;;;160.02;127.38;;;;;;;;;;5036513;28;20050;-69
2022/07/10 10:16:23;;;;;;;11.85;7.30;;;;;;;;;;5036556;28;20458;-69
2022/07/10 10:21:37;;;;;;;115.05;91.45;;;;;;;;;;5036243;28;20057;-69
2022/07/10 10:24:06;;;;;;;105.75;87.25;;;;;;;;;;5036270;28;20107;-69
2022/07/10 10:26:33;;;;;;;61.67;51.38;;;;;;;;;;5036322;28;20072;-69
2022/07/10 10:29:02;;;;;;;18.63;15.68;;;;;;;;;;5034890;28;20399;-69
2022/07/10 10:31:30;;;;;;;69.25;50.28;;;;;;;;;;5036127;28;20489;-69
2022/07/10 10:34:00;;;;;;;48.35;38.22;;;;;;;;;;5036184;28;20057;-70
2022/07/10 10:36:36;;;;;;;23.73;18.13;;;;;;;;;;5036848;28;20399;-70
2022/07/10 10:39:09;;;;;;;36.45;27.20;;;;;;;;;;5035819;28;20049;-69
2022/07/10 10:41:38;;;;;;;84.70;62.85;;;;;;;;;;5034771;28;20041;-70
2022/07/10 10:44:15;;;;;;;13.25;10.18;;;;;;;;;;5035869;28;20088;-69
2022/07/10 10:47:05;;;;;;;86.28;66.28;;;;;;;;;;5034700;28;20559;-69
2022/07/10 10:49:51;;;;;;;222.80;157.48;;;;;;;;;;5036182;28;20065;-69
2022/07/10 10:52:19;;;;;;;93.95;69.15;;;;;;;;;;5035705;28;20073;-70
2022/07/10 10:55:03;;;;;;;135.20;101.28;;;;;;;;;;5035693;28;20041;-70
2022/07/10 10:57:44;;;;;;;61.85;42.13;;;;;;;;;;5035636;28;20041;-70
2022/07/10 11:00:14;;;;;;;10.88;7.68;;;;;;;;;;5034400;28;20046;-70
2022/07/10 11:02:42;;;;;;;5.15;3.40;;;;;;;;;;5035829;28;20486;-70
2022/07/10 11:05:14;;;;;;;7.82;4.47;;;;;;;;;;5035562;28;20041;-68
2022/07/10 11:07:57;;;;;;;8.45;5.88;;;;;;;;;;5035337;28;20095;-67
2022/07/10 11:10:31;;;;;;;8.30;4.13;;;;;;;;;;5035368;28;20120;-67
2022/07/10 11:12:59;;;;;;;32.25;24.15;;;;;;;;;;5035505;28;20046;-68
2022/07/10 11:15:30;;;;;;;9.55;7.30;;;;;;;;;;5035542;28;20038;-68
2022/07/10 11:17:57;;;;;;;7.90;5.28;;;;;;;;;;5035272;28;20049;-69
2022/07/10 11:20:25;;;;;;;5.32;3.90;;;;;;;;;;5034230;28;20049;-69
2022/07/10 11:22:52;;;;;;;7.93;5.05;;;;;;;;;;5033784;28;20042;-69
2022/07/10 11:25:28;;;;;;;4.35;3.05;;;;;;;;;;5034972;28;20593;-69
2022/07/10 11:27:58;;;;;;;4.75;3.47;;;;;;;;;;5035167;28;20107;-69
2022/07/10 11:30:26;;;;;;;6.43;3.95;;;;;;;;;;5035211;28;20080;-69
2022/07/10 11:32:53;;;;;;;11.50;3.20;;;;;;;;;;5034964;28;20041;-69
2022/07/10 11:35:21;;;;;;;6.88;3.33;;;;;;;;;;5035156;28;20088;-69
2022/07/10 11:37:53;;;;;;;6.03;3.70;;;;;;;;;;5034887;28;20038;-69
2022/07/10 11:40:21;;;;;;;6.53;4.53;;;;;;;;;;5034668;28;20057;-68
2022/07/10 11:42:59;;;;;;;7.63;4.75;;;;;;;;;;5034691;28;20038;-69
2022/07/10 11:45:30;;;;;;;5.00;4.50;;;;;;;;;;5034755;28;20457;-69
2022/07/10 11:47:58;;;;;;;4.78;3.53;;;;;;;;;;5034710;28;20049;-69
2022/07/10 11:50:28;;;;;;;8.02;4.95;;;;;;;;;;5034688;28;20037;-68
2022/07/10 11:52:56;;;;;;;6.70;5.05;;;;;;;;;;5034661;28;20049;-69
2022/07/10 11:55:24;;;;;;;13.60;8.65;;;;;;;;;;5034634;28;20095;-69
2022/07/10 11:57:52;;;;;;;11.90;6.57;;;;;;;;;;5035034;28;20037;-69
2022/07/10 12:00:25;;;;;;;6.45;4.93;;;;;;;;;;5033381;28;20041;-69
2022/07/10 12:02:53;;;;;;;6.53;4.17;;;;;;;;;;5034490;28;20045;-69
2022/07/10 12:05:31;;;;;;;18.08;11.63;;;;;;;;;;5034460;28;20286;-69
2022/07/10 12:07:59;;;;;;;6.97;5.75;;;;;;;;;;5034345;28;20045;-69
2022/07/10 12:10:27;;;;;;;8.20;4.20;;;;;;;;;;5034324;28;20049;-69
2022/07/10 12:13:04;;;;;;;8.10;6.05;;;;;;;;;;5034233;28;20034;-69
2022/07/10 12:15:37;;;;;;;11.50;7.55;;;;;;;;;;5034378;28;20147;-69
2022/07/10 12:18:06;;;;;;;6.28;5.00;;;;;;;;;;5033993;28;20048;-69
2022/07/10 12:20:34;;;;;;;6.30;4.70;;;;;;;;;;5034133;28;20414;-69
2022/07/10 12:23:02;;;;;;;6.80;5.60;;;;;;;;;;5034322;28;20041;-69
2022/07/10 12:25:29;;;;;;;7.18;4.57;;;;;;;;;;5034137;28;20037;-69
2022/07/10 12:27:58;;;;;;;8.63;5.07;;;;;;;;;;5033940;28;20069;-69
2022/07/10 12:30:38;;;;;;;10.82;7.97;;;;;;;;;;5033598;28;20574;-69
2022/07/10 12:33:16;;;;;;;8.65;6.50;;;;;;;;;;5033808;28;20042;-69
2022/07/10 12:35:57;;;;;;;5.65;4.90;;;;;;;;;;5033729;28;20057;-69
2022/07/10 12:38:26;;;;;;;6.10;5.50;;;;;;;;;;5033575;28;20056;-69
2022/07/10 12:41:09;;;;;;;6.22;4.57;;;;;;;;;;5033710;28;20041;-69
2022/07/10 12:43:37;;;;;;;8.00;5.15;;;;;;;;;;5033583;28;20061;-69
2022/07/10 12:46:11;;;;;;;6.32;4.57;;;;;;;;;;5032266;28;20041;-69
2022/07/10 12:48:40;;;;;;;5.00;4.40;;;;;;;;;;5033518;28;20045;-69
2022/07/10 12:51:23;;;;;;;12.65;5.32;;;;;;;;;;5032245;28;20099;-68
2022/07/10 12:53:51;;;;;;;6.57;5.18;;;;;;;;;;5033440;28;20092;-68
2022/07/10 12:56:31;;;;;;;7.15;4.30;;;;;;;;;;5033831;28;20068;-69
2022/07/10 12:58:59;;;;;;;5.65;5.00;;;;;;;;;;5033226;28;20045;-69
2022/07/10 13:01:29;;;;;;;5.00;4.47;;;;;;;;;;5033318;28;20041;-68
2022/07/10 13:04:00;;;;;;;4.55;4.15;;;;;;;;;;5033395;28;20438;-69
2022/07/10 13:06:28;;;;;;;5.80;5.30;;;;;;;;;;5033303;28;20076;-68
2022/07/10 13:08:56;;;;;;;5.25;4.75;;;;;;;;;;5033229;28;20049;-68
2022/07/10 13:11:23;;;;;;;8.75;6.03;;;;;;;;;;5033049;28;20049;-68
2022/07/10 13:13:51;;;;;;;7.05;4.53;;;;;;;;;;5033041;28;20052;-68
2022/07/10 13:16:18;;;;;;;5.40;3.70;;;;;;;;;;5033311;28;20056;-68
2022/07/10 13:18:46;;;;;;;5.25;3.55;;;;;;;;;;5033105;28;20071;-68
2022/07/10 13:21:14;;;;;;;6.53;3.72;;;;;;;;;;5032981;28;20037;-68
2022/07/10 13:23:42;;;;;;;5.63;3.60;;;;;;;;;;5033126;28;20038;-69
2022/07/10 13:26:09;;;;;;;5.97;3.90;;;;;;;;;;5032973;28;20037;-69
2022/07/10 13:28:37;;;;;;;6.72;4.10;;;;;;;;;;5032809;28;20495;-68
2022/07/10 13:31:05;;;;;;;6.60;4.43;;;;;;;;;;5031730;28;20130;-71
2022/07/10 13:33:36;;;;;;;7.28;4.50;;;;;;;;;;5032823;28;20041;-69
2022/07/10 13:36:03;;;;;;;5.75;3.90;;;;;;;;;;5032840;28;20051;-69
2022/07/10 13:38:32;;;;;;;5.25;3.70;;;;;;;;;;5032760;28;20046;-69
2022/07/10 13:41:00;;;;;;;4.75;3.70;;;;;;;;;;5032665;28;20073;-69
2022/07/10 13:43:28;;;;;;;4.15;3.10;;;;;;;;;;5032100;28;20523;-70
2022/07/10 13:46:00;;;;;;;3.80;3.05;;;;;;;;;;5031376;28;20049;-69
2022/07/10 13:48:29;;;;;;;4.90;3.08;;;;;;;;;;5032550;28;20116;-69
2022/07/10 13:50:57;;;;;;;5.03;2.92;;;;;;;;;;5032717;28;20135;-69
2022/07/10 13:53:25;;;;;;;3.88;2.90;;;;;;;;;;5031301;28;20069;-69
2022/07/10 13:55:52;;;;;;;3.38;3.08;;;;;;;;;;5032375;28;20064;-69
2022/07/10 13:58:21;;;;;;;4.78;2.90;;;;;;;;;;5032426;28;20116;-69
2022/07/10 14:00:49;;;;;;;3.42;3.13;;;;;;;;;;5031081;28;20077;-69
2022/07/10 14:03:16;;;;;;;4.18;2.92;;;;;;;;;;5032640;28;20046;-69
2022/07/10 14:05:44;;;;;;;3.53;3.13;;;;;;;;;;5031238;28;20506;-69
2022/07/10 14:08:12;;;;;;;3.22;2.92;;;;;;;;;;5032505;28;20045;-69
2022/07/10 14:10:39;;;;;;;3.38;3.08;;;;;;;;;;5032453;28;20049;-69
2022/07/10 14:13:08;;;;;;;3.85;3.25;;;;;;;;;;5032490;28;20045;-69
2022/07/10 14:15:40;;;;;;;5.10;3.80;;;;;;;;;;5032387;28;20103;-70
2022/07/10 14:18:08;;;;;;;4.18;3.30;;;;;;;;;;5032395;28;20495;-69
2022/07/10 14:23:22;;;;;;;4.68;3.22;;;;;;;;;;5032336;28;20068;-69
2022/07/10 14:25:49;;;;;;;4.95;4.13;;;;;;;;;;5032262;28;20060;-69
2022/07/10 14:28:16;;;;;;;4.78;3.50;;;;;;;;;;5032323;28;20045;-69
2022/07/10 14:30:44;;;;;;;9.57;7.35;;;;;;;;;;5032178;28;20049;-69
2022/07/10 14:33:17;;;;;;;11.65;7.13;;;;;;;;;;5031442;28;20041;-69
2022/07/10 14:35:45;;;;;;;11.48;6.40;;;;;;;;;;5032219;28;20046;-69
2022/07/10 14:38:12;;;;;;;10.98;6.45;;;;;;;;;;5032060;28;20048;-69
2022/07/10 14:40:40;;;;;;;5.00;4.50;;;;;;;;;;5031967;28;20399;-69
2022/07/10 14:43:07;;;;;;;7.93;5.72;;;;;;;;;;5031798;28;20042;-69
2022/07/10 14:45:35;;;;;;;10.45;7.22;;;;;;;;;;5031992;28;20053;-69
2022/07/10 14:48:22;;;;;;;14.13;9.63;;;;;;;;;;5032187;28;20462;-69
2022/07/10 14:50:50;;;;;;;8.88;6.85;;;;;;;;;;5032014;28;20041;-69